Lua Nova — CUEP3 — position and weather

sailwx.info

Track history (hours):
 
Tides and Currents Weather Stations Pressure Air Temp Water Temp Dewpoint Dewpoint Depression Visibility Wind Speed Wind Dir Waves Ship Positions

Lua Nova

Last reported at 2017-Aug-23 13:44 UTC. Time now 2017-Sep-22 02:36 UTC.
Position N 40°40' W 008°55'.
Warning: this ship's position is 29 days out of date.

Length 18 m.

Type: Fishing. MMSI: 263404650.

Date/timePositionNaut miles runAvg speedWind from/ knotsBaromVisibWave heightAir tempDewpointWater temp
2017-Aug-23 13:44N 40°40' W 008°55'2 8.3
2017-Aug-23 13:28N 40°41' W 008°58'4 8.4
2017-Aug-23 13:00N 40°42' W 009°03'5 8.4
2017-Aug-23 12:28N 40°43' W 009°08'1 1.7
2017-Aug-23 11:59N 40°44' W 009°09'1 1.8
2017-Aug-23 11:30N 40°44' W 009°09'17 0.5
2017-Aug-22 01:34N 40°27' W 009°05'0 6.9
2017-Aug-22 01:30N 40°28' W 009°05'3 6.5
2017-Aug-22 00:59N 40°30' W 009°09'2 3.2
2017-Aug-22 00:30N 40°31' W 009°11'18 1.1
2017-Aug-21 07:40N 40°48' W 009°02'0 1.0
2017-Aug-21 07:31N 40°48' W 009°02'0 0.1
2017-Aug-21 07:00N 40°48' W 009°02'0 0.7
2017-Aug-21 06:31N 40°48' W 009°02'0 0.4
2017-Aug-21 05:58N 40°48' W 009°02'1 1.6
2017-Aug-21 05:30N 40°48' W 009°01'0 0.5
2017-Aug-21 05:01N 40°48' W 009°01'0 0.6
2017-Aug-21 04:30N 40°48' W 009°02'0 0.8
2017-Aug-21 04:01N 40°48' W 009°02'0 0.2
2017-Aug-21 03:30N 40°48' W 009°02'0 0.9
2017-Aug-21 03:00N 40°48' W 009°01'0 1.0
2017-Aug-21 02:30N 40°48' W 009°02'3 5.9
2017-Aug-21 02:00N 40°47' W 009°05'3 6.4
2017-Aug-21 01:30N 40°45' W 009°09'4 7.7
2017-Aug-21 01:00N 40°41' W 009°09'4 7.7
2017-Aug-21 00:30N 40°41' W 009°04'4 8.1
2017-Aug-21 00:00N 40°40' W 008°59'  
2017-Aug-16 13:04N 40°35' W 008°55'9 0.8
2017-Aug-16 01:49N 40°31' W 009°06'  
2017-Aug-13 13:56N 40°36' W 008°54'  
Track history (hours):
 
Tides and Currents Weather Stations Pressure Air Temp Water Temp Dewpoint Dewpoint Depression Visibility Wind Speed Wind Dir Waves Ship Positions

Lua Nova

Last reported at 2017-Aug-23 13:44 UTC. Time now 2017-Sep-22 02:36 UTC.
Position N 40°40' W 008°55'.
Warning: this ship's position is 29 days out of date.

Length 18 m.

Type: Fishing. MMSI: 263404650.

Date/timePositionNaut miles runAvg speedWind from/ knotsBaromVisibWave heightAir tempDewpointWater temp
2017-Aug-23 13:44N 40°40' W 008°55'2 8.3
2017-Aug-23 13:28N 40°41' W 008°58'4 8.4
2017-Aug-23 13:00N 40°42' W 009°03'5 8.4
2017-Aug-23 12:28N 40°43' W 009°08'1 1.7
2017-Aug-23 11:59N 40°44' W 009°09'1 1.8
2017-Aug-23 11:30N 40°44' W 009°09'17 0.5
2017-Aug-22 01:34N 40°27' W 009°05'0 6.9
2017-Aug-22 01:30N 40°28' W 009°05'3 6.5
2017-Aug-22 00:59N 40°30' W 009°09'2 3.2
2017-Aug-22 00:30N 40°31' W 009°11'18 1.1
2017-Aug-21 07:40N 40°48' W 009°02'0 1.0
2017-Aug-21 07:31N 40°48' W 009°02'0 0.1
2017-Aug-21 07:00N 40°48' W 009°02'0 0.7
2017-Aug-21 06:31N 40°48' W 009°02'0 0.4
2017-Aug-21 05:58N 40°48' W 009°02'1 1.6
2017-Aug-21 05:30N 40°48' W 009°01'0 0.5
2017-Aug-21 05:01N 40°48' W 009°01'0 0.6
2017-Aug-21 04:30N 40°48' W 009°02'0 0.8
2017-Aug-21 04:01N 40°48' W 009°02'0 0.2
2017-Aug-21 03:30N 40°48' W 009°02'0 0.9
2017-Aug-21 03:00N 40°48' W 009°01'0 1.0
2017-Aug-21 02:30N 40°48' W 009°02'3 5.9
2017-Aug-21 02:00N 40°47' W 009°05'3 6.4
2017-Aug-21 01:30N 40°45' W 009°09'4 7.7
2017-Aug-21 01:00N 40°41' W 009°09'4 7.7
2017-Aug-21 00:30N 40°41' W 009°04'4 8.1
2017-Aug-21 00:00N 40°40' W 008°59'  
2017-Aug-16 13:04N 40°35' W 008°55'9 0.8
2017-Aug-16 01:49N 40°31' W 009°06'  
2017-Aug-13 13:56N 40°36' W 008°54'  

Dump ship's entire track history